الصفحة الرئيسية
METAR-TAF:

METAR-TAF

مطار :

البحرين, البحرين

مطار البحرين الدولي

دائرة عرض: 26-16N, خط طول: 050-39E, ارتفاع: 2 متر

مراقبة الطقس الحالي

تاريخ ووقت الإصدار 22 دقيقة قبل الساعة 07:00UTC
ريح 10 عقدة من الشرق/الجنوب الشرقي
درجة الحرارة 19°درجة مئوية
الرطوبة 73%
ضغط 1018 hPa
الرؤية 10 كم أو أكثر
الغيوم لا تقل 1500 م ولا وجود لمزنة ركامية السحاب الأسود

METAR: OBBI 190700Z 11010KT CAVOK 19/14 Q1018 NOSIG

زمن: 10:22 (07:22 UTC)

توقعات

تاريخ ووقت الإصدار 2ساعات و 22 دقيقة قبل الساعة 05:00UTC
التوقعات صالحة من19 الساعة 06 UTC إلى 20 الساعة 12 UTC
ريح 8 عقدة من الجنوب
الرؤية 10 كم أو أكثر
الغيوم لا تقل 1500 م ولا وجود لمزنة ركامية السحاب الأسود
أصبح
من 19 الساعة 14 UTC إلى 19 الساعة 16 UTC
ريح 15 عقدة من الشرق/الجنوب الشرقي
أصبح
من 20 الساعة 08 UTC إلى 20 الساعة 10 UTC
ريح 10 عقدة من الشمال الغربي
الرؤية 10 كم أو أكثر
غيوم متفرقة على ارتفاع 3000 قدم

TAF: OBBI 190500Z 1906/2012 18008KT CAVOK BECMG 1914/1916 12015KT BECMG 2008/2010 32010KT 9999 SCT030

أرصاد الطقس والتوقعات من أكثر من 4000 مطار (تقارير الطقس للمطار METAR والتنبؤ بالطقس بالمطارTAF).

المحطات المتاحة هي النقط الصفراء والحمراء على الخريطة.

حرك المؤشر فوق النقطة لمعرفة اسم المحطة.

ثم انقر لمعرفة أرصاد وتوقعات الطقس.

لتغيير الخارطة: اضغط على الأزرار الخضراء مع رمز الصليب الأسود للتكبير. على الزر الأخضر مع شرطة للتصغير، أو على الأسهم الخضراء للخرائط المجاورة.


METAR-TAF: